»·PEaware :: N13M KSBA-KSBP

N13M :: KSBA-KSBP

FLIGHT INFORMATION

Flight Status: Arrived
Operator: Privately registered:
United States
More flights under this callsign
Pilot: Zhuojun Y. (28503)
Aircraft: Unknown
(PIPA)
More flights by this aircraft type
Origin: KSBA Santa Barbara Mun
United States
Destination: KSBP San Luis Co Regl
United States
More flights between these airports :: More routes between these airports
Route: + GVO V27 AFOXY
File this flight plan on PilotEdge
Remarks:
Altitude:
(Current/Filed)
7,000ft
Speed:
(Current/Filed)
160kts
Departed: 25-Apr-20 09:22 AM
Arrived: 25-Apr-20 09:57 AM
Distance/Time
Traveled:
63nm/0:35
Distance/Time
To Go:
Arrived

Flight Plot

Page will automatically refresh every two minutes.

Flight plan parsing failed; only flown route is shown


Map Options




Map Legend


Flown Route
Filed Route
Departure Airport
Arrival Airport
Navaid (VOR, NDB)
Fix

Horizontal Profiles

Position Reports

Time Latitude Longitude Heading Altitude Ground
Speed
25-Apr-20 09:08 34.425733 -119.837133 96 13ft 0kts
25-Apr-20 09:09 34.425733 -119.837133 96 13ft 0kts
25-Apr-20 09:10 34.425733 -119.837133 96 13ft 0kts
25-Apr-20 09:11 34.425733 -119.837133 96 13ft 0kts
25-Apr-20 09:12 34.425733 -119.837133 96 13ft 0kts
25-Apr-20 09:13 34.425733 -119.837133 96 13ft 0kts
25-Apr-20 09:14 34.425733 -119.837133 96 13ft 0kts
25-Apr-20 09:15 34.425733 -119.837133 96 13ft 0kts
25-Apr-20 09:16 34.425838 -119.836891 14 13ft 2kts
25-Apr-20 09:17 34.426899 -119.838438 340 13ft 6kts
25-Apr-20 09:18 34.428662 -119.838975 345 13ft 6kts
25-Apr-20 09:19 34.430328 -119.839454 340 13ft 6kts
25-Apr-20 09:20 34.430673 -119.839878 260 13ft 2kts
25-Apr-20 09:21 34.422441 -119.837870 166 35ft 75kts
25-Apr-20 09:22 34.401273 -119.828912 153 467ft 89kts
25-Apr-20 09:23 34.374635 -119.815975 162 1193ft 107kts
25-Apr-20 09:24 34.346719 -119.804949 162 2082ft 106kts
25-Apr-20 09:25 34.319074 -119.793608 162 3129ft 105kts
25-Apr-20 09:26 34.287102 -119.780540 162 4544ft 137kts
25-Apr-20 09:27 34.250771 -119.765394 162 6172ft 139kts
25-Apr-20 09:28 34.216789 -119.764882 244 7684ft 137kts
25-Apr-20 09:29 34.230342 -119.815542 291 8012ft 186kts
25-Apr-20 09:30 34.256603 -119.871225 325 8007ft 201kts
25-Apr-20 09:31 34.304140 -119.908065 325 8009ft 203kts
25-Apr-20 09:32 34.351700 -119.944947 325 8009ft 203kts
25-Apr-20 09:33 34.398879 -119.982849 324 8009ft 203kts
25-Apr-20 09:34 34.445818 -120.021147 324 8009ft 203kts
25-Apr-20 09:36 34.492041 -120.059091 323 8069ft 199kts
25-Apr-20 09:37 34.537955 -120.096727 327 8089ft 197kts
25-Apr-20 09:38 34.583091 -120.134842 323 8077ft 198kts
25-Apr-20 09:39 34.626985 -120.174818 320 8117ft 196kts
25-Apr-20 09:40 34.669899 -120.215817 321 8112ft 197kts
25-Apr-20 09:41 34.718962 -120.247287 331 8054ft 199kts
25-Apr-20 09:42 34.767846 -120.277678 327 8075ft 198kts
25-Apr-20 09:43 34.815189 -120.313474 324 8003ft 202kts
25-Apr-20 09:44 34.861137 -120.352927 325 7949ft 204kts
25-Apr-20 09:45 34.908703 -120.386884 330 7736ft 195kts
25-Apr-20 09:46 34.956451 -120.419705 329 6755ft 186kts
25-Apr-20 09:47 35.001637 -120.450189 328 5753ft 182kts
25-Apr-20 09:48 35.042708 -120.480762 325 5048ft 159kts
25-Apr-20 09:49 35.077449 -120.516205 321 3798ft 181kts
25-Apr-20 09:50 35.103778 -120.557878 294 3428ft 108kts
25-Apr-20 09:51 35.116669 -120.595803 309 3027ft 139kts
25-Apr-20 09:52 35.146979 -120.600098 3 2508ft 127kts
25-Apr-20 09:52 35.174524 -120.591794 18 2174ft 122kts
25-Apr-20 09:54 35.208697 -120.596494 328 1562ft 90kts
25-Apr-20 09:54 35.222241 -120.614679 302 867ft 86kts
25-Apr-20 09:55 35.234775 -120.636480 303 215ft 57kts
25-Apr-20 09:57 35.237518 -120.639920 26 215ft 2kts
25-Apr-20 09:57 35.237026 -120.638534 123 215ft 6kts
25-Apr-20 09:58 35.237875 -120.637256 326 215ft 6kts
25-Apr-20 10:00 35.238099 -120.637534 310 215ft 0kts

Navigation Log

Ident Type
Flight plan parsing failed, navigation log unavailable